sensor_id;sensor_type;location;lat;lon;timestamp;pressure;altitude;pressure_sealevel;temperature;humidity
10652;BME280;5374;42.742;23.266;2022-07-23T00:00:20;95684.38;;;21.07;60.77
10652;BME280;5374;42.742;23.266;2022-07-23T00:03:09;95688.16;;;20.98;61.05
10652;BME280;5374;42.742;23.266;2022-07-23T00:05:56;95691.16;;;20.96;61.59
10652;BME280;5374;42.742;23.266;2022-07-23T00:08:43;95690.13;;;20.83;61.81
10652;BME280;5374;42.742;23.266;2022-07-23T00:11:31;95692.38;;;20.90;61.88
10652;BME280;5374;42.742;23.266;2022-07-23T00:14:18;95694.41;;;20.85;61.86
10652;BME280;5374;42.742;23.266;2022-07-23T00:17:05;95693.31;;;20.86;61.90
10652;BME280;5374;42.742;23.266;2022-07-23T00:19:53;95702.50;;;20.85;61.83
10652;BME280;5374;42.742;23.266;2022-07-23T00:22:46;95704.72;;;20.82;61.81
10652;BME280;5374;42.742;23.266;2022-07-23T00:25:33;95693.41;;;20.80;62.09
10652;BME280;5374;42.742;23.266;2022-07-23T00:28:20;95695.97;;;20.77;62.11
10652;BME280;5374;42.742;23.266;2022-07-23T00:31:07;95697.06;;;20.76;62.77
10652;BME280;5374;42.742;23.266;2022-07-23T00:33:54;95682.22;;;20.65;63.65
10652;BME280;5374;42.742;23.266;2022-07-23T00:36:44;95694.00;;;20.69;64.15
10652;BME280;5374;42.742;23.266;2022-07-23T00:39:31;95703.31;;;20.63;63.80
10652;BME280;5374;42.742;23.266;2022-07-23T00:42:18;95690.06;;;20.53;63.62
10652;BME280;5374;42.742;23.266;2022-07-23T00:45:06;95685.91;;;20.46;64.15
10652;BME280;5374;42.742;23.266;2022-07-23T00:47:53;95696.28;;;20.53;64.32
10652;BME280;5374;42.742;23.266;2022-07-23T00:50:41;95693.88;;;20.52;63.80
10652;BME280;5374;42.742;23.266;2022-07-23T00:53:30;95691.09;;;20.43;64.01
10652;BME280;5374;42.742;23.266;2022-07-23T00:56:18;95702.19;;;20.41;64.65
10652;BME280;5374;42.742;23.266;2022-07-23T00:59:05;95699.31;;;20.38;64.62
10652;BME280;5374;42.742;23.266;2022-07-23T01:01:52;95684.75;;;20.25;65.06
10652;BME280;5374;42.742;23.266;2022-07-23T01:04:39;95705.28;;;20.35;65.30
10652;BME280;5374;42.742;23.266;2022-07-23T01:07:27;95708.13;;;20.30;64.85
10652;BME280;5374;42.742;23.266;2022-07-23T01:10:16;95687.75;;;20.24;65.50
10652;BME280;5374;42.742;23.266;2022-07-23T01:13:18;95691.53;;;20.23;66.11
10652;BME280;5374;42.742;23.266;2022-07-23T01:16:06;95702.03;;;20.24;66.04
10652;BME280;5374;42.742;23.266;2022-07-23T01:18:53;95697.34;;;20.16;65.94
10652;BME280;5374;42.742;23.266;2022-07-23T01:21:42;95700.53;;;20.18;66.13
10652;BME280;5374;42.742;23.266;2022-07-23T01:24:31;95687.78;;;20.10;66.21
10652;BME280;5374;42.742;23.266;2022-07-23T01:27:18;95700.16;;;20.11;66.50
10652;BME280;5374;42.742;23.266;2022-07-23T01:30:06;95695.38;;;20.08;66.25
10652;BME280;5374;42.742;23.266;2022-07-23T01:32:53;95694.59;;;20.07;67.22
10652;BME280;5374;42.742;23.266;2022-07-23T01:35:41;95688.19;;;20.03;67.04
10652;BME280;5374;42.742;23.266;2022-07-23T01:38:28;95695.00;;;20.01;67.09
10652;BME280;5374;42.742;23.266;2022-07-23T01:41:16;95688.59;;;19.97;67.12
10652;BME280;5374;42.742;23.266;2022-07-23T01:44:04;95695.41;;;19.94;67.37
10652;BME280;5374;42.742;23.266;2022-07-23T01:46:51;95688.41;;;19.93;67.11
10652;BME280;5374;42.742;23.266;2022-07-23T01:49:38;95689.94;;;19.86;67.39
10652;BME280;5374;42.742;23.266;2022-07-23T01:52:25;95689.03;;;19.76;67.17
10652;BME280;5374;42.742;23.266;2022-07-23T01:55:12;95684.97;;;19.65;67.11
10652;BME280;5374;42.742;23.266;2022-07-23T01:58:01;95689.06;;;19.63;67.04
10652;BME280;5374;42.742;23.266;2022-07-23T02:00:48;95694.25;;;19.59;67.33
10652;BME280;5374;42.742;23.266;2022-07-23T02:03:35;95693.25;;;19.55;67.45
10652;BME280;5374;42.742;23.266;2022-07-23T02:06:22;95702.22;;;19.51;67.98
10652;BME280;5374;42.742;23.266;2022-07-23T02:09:10;95699.28;;;19.47;68.00
10652;BME280;5374;42.742;23.266;2022-07-23T02:11:57;95698.28;;;19.43;68.75
10652;BME280;5374;42.742;23.266;2022-07-23T02:14:45;95702.19;;;19.37;69.03
10652;BME280;5374;42.742;23.266;2022-07-23T02:17:32;95694.63;;;19.39;69.41
10652;BME280;5374;42.742;23.266;2022-07-23T02:20:20;95690.00;;;19.26;69.96
10652;BME280;5374;42.742;23.266;2022-07-23T02:23:07;95686.22;;;19.27;70.27
10652;BME280;5374;42.742;23.266;2022-07-23T02:25:54;95690.22;;;19.29;71.20
10652;BME280;5374;42.742;23.266;2022-07-23T02:28:41;95682.66;;;19.18;71.05
10652;BME280;5374;42.742;23.266;2022-07-23T02:31:30;95696.28;;;19.21;71.29
10652;BME280;5374;42.742;23.266;2022-07-23T02:34:17;95694.72;;;19.20;71.49
10652;BME280;5374;42.742;23.266;2022-07-23T02:37:04;95694.81;;;19.15;71.77
10652;BME280;5374;42.742;23.266;2022-07-23T02:39:52;95705.38;;;19.11;72.30
10652;BME280;5374;42.742;23.266;2022-07-23T02:42:39;95697.38;;;19.06;72.94
10652;BME280;5374;42.742;23.266;2022-07-23T02:45:26;95698.97;;;19.07;73.00
10652;BME280;5374;42.742;23.266;2022-07-23T02:48:15;95702.75;;;19.06;73.64
10652;BME280;5374;42.742;23.266;2022-07-23T02:51:02;95692.66;;;18.98;73.88
10652;BME280;5374;42.742;23.266;2022-07-23T02:53:49;95685.38;;;18.85;74.10
10652;BME280;5374;42.742;23.266;2022-07-23T02:56:36;95690.47;;;18.87;74.19
10652;BME280;5374;42.742;23.266;2022-07-23T02:59:24;95715.41;;;18.92;74.48
10652;BME280;5374;42.742;23.266;2022-07-23T03:02:11;95705.31;;;18.84;74.73
10652;BME280;5374;42.742;23.266;2022-07-23T03:04:59;95717.56;;;18.90;74.99
10652;BME280;5374;42.742;23.266;2022-07-23T03:07:46;95695.00;;;18.72;75.05
10652;BME280;5374;42.742;23.266;2022-07-23T03:10:34;95723.84;;;18.86;75.47
10652;BME280;5374;42.742;23.266;2022-07-23T03:13:21;95722.53;;;18.83;75.27
10652;BME280;5374;42.742;23.266;2022-07-23T03:16:08;95728.13;;;18.87;75.56
10652;BME280;5374;42.742;23.266;2022-07-23T03:18:55;95725.53;;;18.82;75.29
10652;BME280;5374;42.742;23.266;2022-07-23T03:21:44;95717.91;;;18.70;75.23
10652;BME280;5374;42.742;23.266;2022-07-23T03:24:31;95741.38;;;18.83;75.11
10652;BME280;5374;42.742;23.266;2022-07-23T03:27:32;95729.22;;;18.86;75.25
10652;BME280;5374;42.742;23.266;2022-07-23T03:30:20;95742.91;;;18.89;75.16
10652;BME280;5374;42.742;23.266;2022-07-23T03:33:07;95741.50;;;18.92;75.46
10652;BME280;5374;42.742;23.266;2022-07-23T03:35:54;95743.31;;;18.96;74.93
10652;BME280;5374;42.742;23.266;2022-07-23T03:38:42;95733.94;;;18.94;74.88
10652;BME280;5374;42.742;23.266;2022-07-23T03:41:30;95721.56;;;18.93;74.53
10652;BME280;5374;42.742;23.266;2022-07-23T03:44:17;95735.28;;;19.10;74.04
10652;BME280;5374;42.742;23.266;2022-07-23T03:47:04;95734.78;;;19.22;73.26
10652;BME280;5374;42.742;23.266;2022-07-23T03:49:52;95753.38;;;19.37;72.75
10652;BME280;5374;42.742;23.266;2022-07-23T03:52:39;95717.78;;;19.40;72.14
10652;BME280;5374;42.742;23.266;2022-07-23T03:55:27;95741.72;;;20.10;69.60
10652;BME280;5374;42.742;23.266;2022-07-23T03:58:15;95747.59;;;21.06;64.15
10652;BME280;5374;42.742;23.266;2022-07-23T04:01:02;95735.59;;;21.92;60.52
10652;BME280;5374;42.742;23.266;2022-07-23T04:03:49;95737.81;;;22.72;57.50
10652;BME280;5374;42.742;23.266;2022-07-23T04:06:36;95738.09;;;23.23;54.93
10652;BME280;5374;42.742;23.266;2022-07-23T04:09:23;95739.28;;;23.60;54.05
10652;BME280;5374;42.742;23.266;2022-07-23T04:12:12;95721.19;;;24.02;52.12
10652;BME280;5374;42.742;23.266;2022-07-23T04:14:59;95739.38;;;24.60;51.19
10652;BME280;5374;42.742;23.266;2022-07-23T04:17:46;95745.66;;;25.27;49.60
10652;BME280;5374;42.742;23.266;2022-07-23T04:20:34;95721.91;;;25.60;47.77
10652;BME280;5374;42.742;23.266;2022-07-23T04:23:21;95741.69;;;26.18;46.92
10652;BME280;5374;42.742;23.266;2022-07-23T04:26:08;95730.00;;;26.30;46.46
10652;BME280;5374;42.742;23.266;2022-07-23T04:28:57;95742.50;;;26.43;46.23
10652;BME280;5374;42.742;23.266;2022-07-23T04:31:44;95733.88;;;26.69;45.77
10652;BME280;5374;42.742;23.266;2022-07-23T04:34:31;95725.75;;;26.97;44.79
10652;BME280;5374;42.742;23.266;2022-07-23T04:37:18;95745.72;;;27.29;44.44
10652;BME280;5374;42.742;23.266;2022-07-23T04:40:06;95753.28;;;27.63;43.55
10652;BME280;5374;42.742;23.266;2022-07-23T04:42:53;95745.63;;;27.84;42.92
10652;BME280;5374;42.742;23.266;2022-07-23T04:45:42;95751.59;;;28.37;41.66
10652;BME280;5374;42.742;23.266;2022-07-23T04:48:29;95753.19;;;29.50;39.29
10652;BME280;5374;42.742;23.266;2022-07-23T04:51:16;95761.13;;;30.54;37.26
10652;BME280;5374;42.742;23.266;2022-07-23T04:54:03;95765.88;;;31.80;35.01
10652;BME280;5374;42.742;23.266;2022-07-23T04:56:50;95765.56;;;32.95;33.64
10652;BME280;5374;42.742;23.266;2022-07-23T04:59:37;95774.56;;;34.32;31.29
10652;BME280;5374;42.742;23.266;2022-07-23T05:02:26;95736.03;;;35.44;29.72
10652;BME280;5374;42.742;23.266;2022-07-23T05:05:13;95760.41;;;36.63;27.66
10652;BME280;5374;42.742;23.266;2022-07-23T05:08:00;95772.06;;;37.53;26.53
10652;BME280;5374;42.742;23.266;2022-07-23T05:10:47;95773.78;;;38.51;25.46
10652;BME280;5374;42.742;23.266;2022-07-23T05:13:34;95778.94;;;39.55;24.60
10652;BME280;5374;42.742;23.266;2022-07-23T05:16:22;95777.38;;;40.43;23.27
10652;BME280;5374;42.742;23.266;2022-07-23T05:19:10;95767.28;;;40.94;22.37
10652;BME280;5374;42.742;23.266;2022-07-23T05:21:58;95771.19;;;41.67;21.95
10652;BME280;5374;42.742;23.266;2022-07-23T05:24:45;95768.66;;;42.11;21.24
10652;BME280;5374;42.742;23.266;2022-07-23T05:27:32;95765.06;;;41.72;21.41
10652;BME280;5374;42.742;23.266;2022-07-23T05:30:19;95782.63;;;42.11;20.85
10652;BME280;5374;42.742;23.266;2022-07-23T05:33:06;95780.38;;;42.18;21.28
10652;BME280;5374;42.742;23.266;2022-07-23T05:36:00;95769.03;;;41.46;21.93
10652;BME280;5374;42.742;23.266;2022-07-23T05:38:47;95782.91;;;41.20;22.36
10652;BME280;5374;42.742;23.266;2022-07-23T05:41:34;95785.00;;;40.55;22.94
10652;BME280;5374;42.742;23.266;2022-07-23T05:44:21;95785.06;;;40.03;23.52
10652;BME280;5374;42.742;23.266;2022-07-23T05:47:08;95788.13;;;39.72;24.07
10652;BME280;5374;42.742;23.266;2022-07-23T05:49:58;95781.19;;;39.05;24.72
10652;BME280;5374;42.742;23.266;2022-07-23T05:52:47;95779.44;;;38.68;24.86
10652;BME280;5374;42.742;23.266;2022-07-23T05:55:34;95778.00;;;38.36;24.55
10652;BME280;5374;42.742;23.266;2022-07-23T05:58:21;95760.53;;;37.85;25.75
10652;BME280;5374;42.742;23.266;2022-07-23T06:01:08;95770.34;;;37.63;26.14
10652;BME280;5374;42.742;23.266;2022-07-23T06:03:57;95772.16;;;37.46;26.41
10652;BME280;5374;42.742;23.266;2022-07-23T06:06:44;95766.34;;;37.03;26.20
10652;BME280;5374;42.742;23.266;2022-07-23T06:09:33;95767.63;;;36.95;27.78
10652;BME280;5374;42.742;23.266;2022-07-23T06:12:20;95771.22;;;36.92;27.02
10652;BME280;5374;42.742;23.266;2022-07-23T06:15:08;95768.84;;;36.90;27.99
10652;BME280;5374;42.742;23.266;2022-07-23T06:17:56;95770.16;;;36.82;26.66
10652;BME280;5374;42.742;23.266;2022-07-23T06:20:43;95768.63;;;36.33;26.79
10652;BME280;5374;42.742;23.266;2022-07-23T06:23:30;95765.50;;;36.24;28.08
10652;BME280;5374;42.742;23.266;2022-07-23T06:26:19;95769.50;;;36.16;28.13
10652;BME280;5374;42.742;23.266;2022-07-23T06:29:06;95766.09;;;35.97;28.57
10652;BME280;5374;42.742;23.266;2022-07-23T06:31:53;95759.69;;;36.11;28.52
10652;BME280;5374;42.742;23.266;2022-07-23T06:34:41;95751.22;;;36.33;28.27
10652;BME280;5374;42.742;23.266;2022-07-23T06:37:28;95744.09;;;36.35;28.11
10652;BME280;5374;42.742;23.266;2022-07-23T06:40:15;95761.38;;;36.46;28.06
10652;BME280;5374;42.742;23.266;2022-07-23T06:43:03;95763.69;;;36.51;28.00
10652;BME280;5374;42.742;23.266;2022-07-23T06:45:50;95750.25;;;36.53;27.76
10652;BME280;5374;42.742;23.266;2022-07-23T06:48:37;95768.69;;;36.63;27.27
10652;BME280;5374;42.742;23.266;2022-07-23T06:51:25;95754.00;;;36.74;28.10
10652;BME280;5374;42.742;23.266;2022-07-23T06:54:12;95758.59;;;36.87;27.81
10652;BME280;5374;42.742;23.266;2022-07-23T06:56:59;95741.09;;;36.97;28.00
10652;BME280;5374;42.742;23.266;2022-07-23T06:59:48;95757.19;;;37.06;28.24
10652;BME280;5374;42.742;23.266;2022-07-23T07:02:35;95743.94;;;37.24;27.81
10652;BME280;5374;42.742;23.266;2022-07-23T07:05:22;95744.00;;;37.17;27.72
10652;BME280;5374;42.742;23.266;2022-07-23T07:08:12;95735.41;;;37.08;27.90
10652;BME280;5374;42.742;23.266;2022-07-23T07:11:00;95747.34;;;37.05;27.52
10652;BME280;5374;42.742;23.266;2022-07-23T07:13:47;95742.06;;;37.14;27.79
10652;BME280;5374;42.742;23.266;2022-07-23T07:16:35;95738.72;;;36.96;27.82
10652;BME280;5374;42.742;23.266;2022-07-23T07:19:22;95726.00;;;36.64;28.24
10652;BME280;5374;42.742;23.266;2022-07-23T07:22:09;95731.84;;;37.08;27.97
10652;BME280;5374;42.742;23.266;2022-07-23T07:24:57;95721.00;;;37.24;28.01
10652;BME280;5374;42.742;23.266;2022-07-23T07:27:44;95721.78;;;37.51;27.89
10652;BME280;5374;42.742;23.266;2022-07-23T07:30:31;95716.09;;;37.66;27.75
10652;BME280;5374;42.742;23.266;2022-07-23T07:33:20;95721.44;;;37.76;27.71
10652;BME280;5374;42.742;23.266;2022-07-23T07:36:08;95714.47;;;37.38;28.25
10652;BME280;5374;42.742;23.266;2022-07-23T07:38:55;95720.97;;;37.27;27.50
10652;BME280;5374;42.742;23.266;2022-07-23T07:41:42;95726.25;;;37.45;26.96
10652;BME280;5374;42.742;23.266;2022-07-23T07:44:29;95716.94;;;37.59;26.95
10652;BME280;5374;42.742;23.266;2022-07-23T07:47:16;95717.91;;;37.76;27.40
10652;BME280;5374;42.742;23.266;2022-07-23T07:50:05;95694.47;;;37.80;28.37
10652;BME280;5374;42.742;23.266;2022-07-23T07:52:53;95710.16;;;37.90;26.87
10652;BME280;5374;42.742;23.266;2022-07-23T07:55:40;95706.06;;;37.45;26.83
10652;BME280;5374;42.742;23.266;2022-07-23T07:58:27;95709.06;;;37.84;26.49
10652;BME280;5374;42.742;23.266;2022-07-23T08:01:14;95694.25;;;37.94;26.04
10652;BME280;5374;42.742;23.266;2022-07-23T08:04:02;95710.66;;;38.09;26.57
10652;BME280;5374;42.742;23.266;2022-07-23T08:06:51;95709.16;;;38.27;26.76
10652;BME280;5374;42.742;23.266;2022-07-23T08:09:38;95698.44;;;38.03;26.89
10652;BME280;5374;42.742;23.266;2022-07-23T08:12:25;95701.59;;;38.05;27.40
10652;BME280;5374;42.742;23.266;2022-07-23T08:15:13;95703.16;;;38.06;27.12
10652;BME280;5374;42.742;23.266;2022-07-23T08:18:01;95698.97;;;38.21;26.89
10652;BME280;5374;42.742;23.266;2022-07-23T08:20:48;95701.13;;;38.33;27.04
10652;BME280;5374;42.742;23.266;2022-07-23T08:23:36;95685.22;;;38.14;25.63
10652;BME280;5374;42.742;23.266;2022-07-23T08:26:23;95703.03;;;38.16;27.38
10652;BME280;5374;42.742;23.266;2022-07-23T08:29:10;95688.41;;;38.36;25.77
10652;BME280;5374;42.742;23.266;2022-07-23T08:31:58;95691.25;;;38.32;26.55
10652;BME280;5374;42.742;23.266;2022-07-23T08:34:45;95689.56;;;38.15;26.84
10652;BME280;5374;42.742;23.266;2022-07-23T08:37:32;95688.00;;;38.14;27.22
10652;BME280;5374;42.742;23.266;2022-07-23T08:40:21;95687.00;;;38.24;26.69
10652;BME280;5374;42.742;23.266;2022-07-23T08:43:11;95691.34;;;38.25;27.02
10652;BME280;5374;42.742;23.266;2022-07-23T08:45:59;95678.56;;;38.08;27.83
10652;BME280;5374;42.742;23.266;2022-07-23T08:48:48;95680.81;;;38.16;27.30
10652;BME280;5374;42.742;23.266;2022-07-23T08:51:36;95676.28;;;38.26;26.29
10652;BME280;5374;42.742;23.266;2022-07-23T08:54:23;95684.28;;;38.20;26.89
10652;BME280;5374;42.742;23.266;2022-07-23T08:57:12;95669.59;;;38.23;26.71
10652;BME280;5374;42.742;23.266;2022-07-23T08:59:59;95671.88;;;38.28;26.16
10652;BME280;5374;42.742;23.266;2022-07-23T09:02:47;95675.41;;;38.06;26.77
10652;BME280;5374;42.742;23.266;2022-07-23T09:05:35;95671.38;;;38.10;26.35
10652;BME280;5374;42.742;23.266;2022-07-23T09:08:24;95659.97;;;38.05;28.16
10652;BME280;5374;42.742;23.266;2022-07-23T09:11:15;95668.72;;;38.03;26.30
10652;BME280;5374;42.742;23.266;2022-07-23T09:14:04;95662.88;;;37.97;26.94
10652;BME280;5374;42.742;23.266;2022-07-23T09:16:51;95662.75;;;37.81;27.56
10652;BME280;5374;42.742;23.266;2022-07-23T09:19:39;95650.78;;;37.88;27.77
10652;BME280;5374;42.742;23.266;2022-07-23T09:22:27;95661.19;;;37.80;27.64
10652;BME280;5374;42.742;23.266;2022-07-23T09:25:16;95667.47;;;37.84;26.56
10652;BME280;5374;42.742;23.266;2022-07-23T09:28:03;95665.31;;;37.95;27.09
10652;BME280;5374;42.742;23.266;2022-07-23T09:30:54;95660.63;;;38.16;26.29
10652;BME280;5374;42.742;23.266;2022-07-23T09:33:41;95653.00;;;38.20;25.73
10652;BME280;5374;42.742;23.266;2022-07-23T09:36:29;95653.09;;;38.16;26.68
10652;BME280;5374;42.742;23.266;2022-07-23T09:39:25;95652.56;;;38.21;25.98
10652;BME280;5374;42.742;23.266;2022-07-23T09:42:14;95649.59;;;38.12;25.81
10652;BME280;5374;42.742;23.266;2022-07-23T09:45:02;95638.78;;;38.18;25.19
10652;BME280;5374;42.742;23.266;2022-07-23T09:47:50;95636.59;;;38.06;24.99
10652;BME280;5374;42.742;23.266;2022-07-23T09:50:38;95638.44;;;38.16;25.67
10652;BME280;5374;42.742;23.266;2022-07-23T09:53:25;95637.22;;;38.17;24.28
10652;BME280;5374;42.742;23.266;2022-07-23T09:56:13;95631.69;;;38.37;24.69
10652;BME280;5374;42.742;23.266;2022-07-23T09:59:01;95639.22;;;38.36;24.06
10652;BME280;5374;42.742;23.266;2022-07-23T10:01:52;95622.19;;;38.57;26.05
10652;BME280;5374;42.742;23.266;2022-07-23T10:04:41;95623.25;;;38.63;25.10
10652;BME280;5374;42.742;23.266;2022-07-23T10:07:32;95623.59;;;38.65;23.49
10652;BME280;5374;42.742;23.266;2022-07-23T10:10:21;95619.31;;;38.81;25.15
10652;BME280;5374;42.742;23.266;2022-07-23T10:13:09;95614.75;;;38.90;24.38
10652;BME280;5374;42.742;23.266;2022-07-23T10:16:10;95614.16;;;38.99;23.42
10652;BME280;5374;42.742;23.266;2022-07-23T10:18:57;95616.66;;;38.93;21.48
10652;BME280;5374;42.742;23.266;2022-07-23T10:21:49;95600.16;;;38.47;24.37
10652;BME280;5374;42.742;23.266;2022-07-23T10:25:00;95591.16;;;38.62;23.38
10652;BME280;5374;42.742;23.266;2022-07-23T10:28:00;95608.72;;;38.56;23.82
10652;BME280;5374;42.742;23.266;2022-07-23T10:31:00;95607.22;;;38.71;24.57
10652;BME280;5374;42.742;23.266;2022-07-23T10:33:56;95582.78;;;38.82;22.08
10652;BME280;5374;42.742;23.266;2022-07-23T10:36:52;95589.66;;;38.94;21.59
10652;BME280;5374;42.742;23.266;2022-07-23T10:39:39;95587.13;;;39.03;21.57
10652;BME280;5374;42.742;23.266;2022-07-23T10:42:33;95583.84;;;39.08;19.44
10652;BME280;5374;42.742;23.266;2022-07-23T10:45:24;95598.06;;;39.10;18.68
10652;BME280;5374;42.742;23.266;2022-07-23T10:48:14;95582.91;;;39.31;21.73
10652;BME280;5374;42.742;23.266;2022-07-23T10:51:09;95586.13;;;39.29;22.17
10652;BME280;5374;42.742;23.266;2022-07-23T10:53:58;95565.41;;;39.14;19.74
10652;BME280;5374;42.742;23.266;2022-07-23T10:56:50;95574.31;;;39.25;19.57
10652;BME280;5374;42.742;23.266;2022-07-23T11:00:16;95578.09;;;39.31;19.34
10652;BME280;5374;42.742;23.266;2022-07-23T11:03:28;95573.94;;;39.23;19.55
10652;BME280;5374;42.742;23.266;2022-07-23T11:06:17;95571.09;;;39.27;19.39
10652;BME280;5374;42.742;23.266;2022-07-23T11:09:26;95559.56;;;39.45;20.00
10652;BME280;5374;42.742;23.266;2022-07-23T11:12:33;95554.06;;;38.89;19.58
10652;BME280;5374;42.742;23.266;2022-07-23T11:15:21;95559.38;;;38.99;19.71
10652;BME280;5374;42.742;23.266;2022-07-23T11:18:08;95557.38;;;38.44;21.34
10652;BME280;5374;42.742;23.266;2022-07-23T11:20:55;95561.81;;;38.61;19.21
10652;BME280;5374;42.742;23.266;2022-07-23T11:23:58;95549.34;;;38.70;20.21
10652;BME280;5374;42.742;23.266;2022-07-23T11:26:51;95551.47;;;38.82;20.27
10652;BME280;5374;42.742;23.266;2022-07-23T11:29:44;95518.78;;;38.70;20.67
10652;BME280;5374;42.742;23.266;2022-07-23T11:32:37;95540.94;;;38.89;21.92
10652;BME280;5374;42.742;23.266;2022-07-23T11:35:27;95542.16;;;39.08;20.76
10652;BME280;5374;42.742;23.266;2022-07-23T11:38:17;95540.69;;;39.04;19.95
10652;BME280;5374;42.742;23.266;2022-07-23T11:41:05;95536.53;;;38.92;20.26
10652;BME280;5374;42.742;23.266;2022-07-23T11:43:54;95531.16;;;38.85;18.82
10652;BME280;5374;42.742;23.266;2022-07-23T11:46:54;95522.66;;;38.92;18.92
10652;BME280;5374;42.742;23.266;2022-07-23T11:49:52;95521.47;;;39.09;19.60
10652;BME280;5374;42.742;23.266;2022-07-23T11:52:39;95513.84;;;39.13;21.20
10652;BME280;5374;42.742;23.266;2022-07-23T11:55:27;95511.50;;;39.12;20.84
10652;BME280;5374;42.742;23.266;2022-07-23T11:58:15;95516.81;;;39.22;20.64
10652;BME280;5374;42.742;23.266;2022-07-23T12:01:03;95519.56;;;39.39;18.03
10652;BME280;5374;42.742;23.266;2022-07-23T12:03:51;95520.00;;;39.21;17.47
10652;BME280;5374;42.742;23.266;2022-07-23T12:06:38;95511.06;;;39.29;18.97
10652;BME280;5374;42.742;23.266;2022-07-23T12:09:25;95509.88;;;39.30;18.21
10652;BME280;5374;42.742;23.266;2022-07-23T12:12:13;95508.00;;;39.40;17.69
10652;BME280;5374;42.742;23.266;2022-07-23T12:15:00;95508.97;;;39.33;17.66
10652;BME280;5374;42.742;23.266;2022-07-23T12:17:49;95498.22;;;39.19;17.71
10652;BME280;5374;42.742;23.266;2022-07-23T12:20:38;95501.31;;;39.38;18.78
10652;BME280;5374;42.742;23.266;2022-07-23T12:23:26;95499.84;;;39.33;19.28
10652;BME280;5374;42.742;23.266;2022-07-23T12:26:13;95499.06;;;39.32;18.81
10652;BME280;5374;42.742;23.266;2022-07-23T12:29:00;95497.50;;;39.31;17.94
10652;BME280;5374;42.742;23.266;2022-07-23T12:31:48;95496.41;;;38.77;17.42
10652;BME280;5374;42.742;23.266;2022-07-23T12:34:36;95493.22;;;38.78;16.84
10652;BME280;5374;42.742;23.266;2022-07-23T12:37:28;95487.03;;;38.87;17.81
10652;BME280;5374;42.742;23.266;2022-07-23T12:40:21;95465.53;;;38.75;17.28
10652;BME280;5374;42.742;23.266;2022-07-23T12:43:11;95456.41;;;38.74;17.11
10652;BME280;5374;42.742;23.266;2022-07-23T12:46:03;95473.69;;;38.82;16.56
10652;BME280;5374;42.742;23.266;2022-07-23T12:48:52;95475.44;;;38.92;16.74
10652;BME280;5374;42.742;23.266;2022-07-23T12:51:41;95467.16;;;39.08;17.36
10652;BME280;5374;42.742;23.266;2022-07-23T12:54:28;95467.31;;;39.01;17.49
10652;BME280;5374;42.742;23.266;2022-07-23T12:57:15;95471.28;;;39.16;17.08
10652;BME280;5374;42.742;23.266;2022-07-23T13:00:08;95455.75;;;39.03;16.19
10652;BME280;5374;42.742;23.266;2022-07-23T13:02:56;95472.97;;;38.61;16.16
10652;BME280;5374;42.742;23.266;2022-07-23T13:05:43;95471.69;;;38.46;15.61
10652;BME280;5374;42.742;23.266;2022-07-23T13:08:32;95465.59;;;38.71;16.78
10652;BME280;5374;42.742;23.266;2022-07-23T13:11:20;95461.72;;;38.85;16.72
10652;BME280;5374;42.742;23.266;2022-07-23T13:14:07;95462.03;;;38.87;16.95
10652;BME280;5374;42.742;23.266;2022-07-23T13:16:55;95462.41;;;38.89;16.78
10652;BME280;5374;42.742;23.266;2022-07-23T13:19:43;95454.25;;;38.98;16.89
10652;BME280;5374;42.742;23.266;2022-07-23T13:22:30;95456.13;;;38.69;15.79
10652;BME280;5374;42.742;23.266;2022-07-23T13:25:19;95452.50;;;38.88;15.19
10652;BME280;5374;42.742;23.266;2022-07-23T13:28:06;95464.31;;;38.76;14.66
10652;BME280;5374;42.742;23.266;2022-07-23T13:30:53;95456.34;;;38.78;14.87
10652;BME280;5374;42.742;23.266;2022-07-23T13:33:40;95454.41;;;38.75;15.19
10652;BME280;5374;42.742;23.266;2022-07-23T13:36:27;95451.88;;;38.64;15.31
10652;BME280;5374;42.742;23.266;2022-07-23T13:39:14;95453.22;;;38.40;13.83
10652;BME280;5374;42.742;23.266;2022-07-23T13:42:03;95444.59;;;38.34;15.09
10652;BME280;5374;42.742;23.266;2022-07-23T13:44:51;95438.03;;;38.44;15.65
10652;BME280;5374;42.742;23.266;2022-07-23T13:47:38;95426.38;;;38.17;16.79
10652;BME280;5374;42.742;23.266;2022-07-23T13:50:25;95439.28;;;37.84;15.80
10652;BME280;5374;42.742;23.266;2022-07-23T13:53:17;95431.41;;;37.82;16.79
10652;BME280;5374;42.742;23.266;2022-07-23T13:56:04;95418.16;;;37.50;15.26
10652;BME280;5374;42.742;23.266;2022-07-23T13:58:53;95427.66;;;37.73;16.45
10652;BME280;5374;42.742;23.266;2022-07-23T14:01:40;95431.97;;;37.93;16.51
10652;BME280;5374;42.742;23.266;2022-07-23T14:04:27;95432.16;;;38.03;17.00
10652;BME280;5374;42.742;23.266;2022-07-23T14:07:14;95431.91;;;38.17;16.54
10652;BME280;5374;42.742;23.266;2022-07-23T14:10:03;95430.03;;;38.30;17.86
10652;BME280;5374;42.742;23.266;2022-07-23T14:12:51;95433.53;;;38.14;16.25
10652;BME280;5374;42.742;23.266;2022-07-23T14:15:43;95430.47;;;38.09;17.28
10652;BME280;5374;42.742;23.266;2022-07-23T14:18:30;95430.41;;;38.12;16.79
10652;BME280;5374;42.742;23.266;2022-07-23T14:21:17;95426.84;;;38.12;17.28
10652;BME280;5374;42.742;23.266;2022-07-23T14:24:04;95420.94;;;38.10;17.42
10652;BME280;5374;42.742;23.266;2022-07-23T14:26:52;95426.47;;;38.10;17.40
10652;BME280;5374;42.742;23.266;2022-07-23T14:29:39;95422.53;;;38.11;17.31
10652;BME280;5374;42.742;23.266;2022-07-23T14:32:27;95415.34;;;38.13;17.58
10652;BME280;5374;42.742;23.266;2022-07-23T14:35:15;95415.38;;;38.10;17.36
10652;BME280;5374;42.742;23.266;2022-07-23T14:38:02;95418.66;;;38.05;17.54
10652;BME280;5374;42.742;23.266;2022-07-23T14:40:49;95405.88;;;37.91;18.07
10652;BME280;5374;42.742;23.266;2022-07-23T14:43:36;95412.00;;;37.82;16.91
10652;BME280;5374;42.742;23.266;2022-07-23T14:46:23;95408.13;;;37.76;16.36
10652;BME280;5374;42.742;23.266;2022-07-23T14:49:12;95401.13;;;37.72;17.12
10652;BME280;5374;42.742;23.266;2022-07-23T14:51:59;95398.78;;;37.70;17.73